Rongjiang, China
Current Conditions -  °F | °C
As of 10:00 PM on Friday 31 Oct 2014 (Local Time) from ZGKL Reporting Station
Overcast Overcast  
Wind Chill: 66°   Ceiling: 5300
Heat Index: 66°   Visibility: 4mi
Dew Point: 61°   Wind: 2mph
Humidity: 83%   Direction: NA
Pressure: 30"   Gusts: NA
Location:  25.97°N, 108.53°E
Report Text: ZGKL 311400Z VRB01MPS 7000 SCT023 OVC053 19/16 Q1016 NOSIG
Loading
Personal Weather Stations






























Interactive Weather Map
Tropical Storm Tracking
New forecast layout! Learn more

10-Day Weather Forecast

Advertisements
Track Severe Weather on mobile